Time,TemperatureF,DewpointF,PressureIn,WindDirection,WindDirectionDegrees,WindSpeedMPH,WindSpeedGustMPH,Humidity,HourlyPrecipIn,Conditions,Clouds,dailyrainin,SoftwareType,DateUTC
2013-01-19 00:02:00,38.0,29.0,29.70,WNW,292,13.0,19.0,70,0.00,,,0.00,,2013-01-19 07:02:00,
2013-01-19 00:12:00,38.0,29.0,29.70,WNW,292,13.0,19.0,70,0.00,,,0.00,,2013-01-19 07:12:00,
2013-01-19 02:33:00,37.0,29.0,29.79,WNW,300,11.0,17.0,73,0.00,,,0.00,,2013-01-19 09:33:00,
2013-01-19 02:43:00,37.0,29.0,29.79,WNW,300,11.0,17.0,73,0.00,,,0.00,,2013-01-19 09:43:00,
2013-01-19 02:53:00,37.0,29.0,29.80,WNW,294,7.0,13.0,73,0.00,,,0.00,,2013-01-19 09:53:00,
2013-01-19 03:02:00,36.0,28.0,29.81,WNW,299,6.0,10.0,72,0.00,,,0.00,,2013-01-19 10:02:00,
2013-01-19 03:12:00,36.0,28.0,29.81,WNW,299,6.0,10.0,72,0.00,,,0.00,,2013-01-19 10:12:00,
2013-01-19 03:22:00,36.0,28.0,29.81,WNW,302,10.0,15.0,72,0.00,,,0.00,,2013-01-19 10:22:00,
2013-01-19 03:32:00,36.0,28.0,29.82,NW,323,12.0,19.0,73,0.00,,,0.00,,2013-01-19 10:32:00,
2013-01-19 03:42:00,36.0,28.0,29.82,NW,323,12.0,19.0,73,0.00,,,0.00,,2013-01-19 10:42:00,
2013-01-19 03:53:00,36.0,28.0,29.82,NW,323,12.0,19.0,73,0.00,,,0.00,,2013-01-19 10:53:00,
2013-01-19 04:02:00,36.0,28.0,29.82,NW,323,12.0,19.0,73,0.00,,,0.00,,2013-01-19 11:02:00,
2013-01-19 04:12:00,36.0,28.0,29.82,NW,323,12.0,19.0,73,0.00,,,0.00,,2013-01-19 11:12:00,
2013-01-19 06:23:00,33.0,27.0,29.91,NW,306,13.0,16.0,77,0.00,,,0.00,,2013-01-19 13:23:00,
2013-01-19 06:34:00,33.0,27.0,29.92,NW,326,14.0,18.0,77,0.00,,,0.00,,2013-01-19 13:34:00,
2013-01-19 06:43:00,33.0,27.0,29.92,NW,326,14.0,18.0,77,0.00,,,0.00,,2013-01-19 13:43:00,
2013-01-19 06:53:00,34.0,27.0,29.92,NNW,331,15.0,23.0,76,0.00,,,0.00,,2013-01-19 13:53:00,
2013-01-19 07:02:00,34.0,28.0,29.93,NW,324,15.0,22.0,77,0.00,,,0.00,,2013-01-19 14:02:00,
2013-01-19 07:12:00,34.0,28.0,29.93,NW,324,15.0,22.0,77,0.00,,,0.00,,2013-01-19 14:12:00,
2013-01-19 07:23:00,34.0,28.0,29.93,NW,324,15.0,22.0,77,0.00,,,0.00,,2013-01-19 14:23:00,
2013-01-19 07:33:00,34.0,28.0,29.93,NW,324,15.0,22.0,77,0.00,,,0.00,,2013-01-19 14:33:00,
2013-01-19 07:43:00,34.0,28.0,29.93,NW,324,15.0,22.0,77,0.00,,,0.00,,2013-01-19 14:43:00,
2013-01-19 09:54:00,23.0,18.0,30.13,North,351,11.0,17.0,80,0.00,,,0.00,,2013-01-19 16:54:00,
2013-01-19 10:03:00,22.0,17.0,30.14,NNW,341,11.0,18.0,80,0.00,,,0.00,,2013-01-19 17:03:00,
2013-01-19 10:28:00,21.0,16.0,30.16,NNW,335,11.0,16.0,80,0.00,,,0.00,,2013-01-19 17:28:00,
2013-01-19 10:35:00,21.0,16.0,30.17,North,360,7.0,12.0,80,0.00,,,0.00,,2013-01-19 17:35:00,
2013-01-19 10:54:00,21.0,16.0,30.17,North,360,7.0,12.0,80,0.00,,,0.00,,2013-01-19 17:54:00,
2013-01-19 11:14:00,21.0,16.0,30.17,North,360,7.0,12.0,80,0.00,,,0.00,,2013-01-19 18:14:00,
2013-01-19 13:27:00,18.0,11.0,30.22,NNW,331,9.0,15.0,74,0.00,,,0.00,,2013-01-19 20:27:00,
2013-01-19 13:39:00,17.0,10.0,30.22,North,355,7.0,15.0,75,0.00,,,0.00,,2013-01-19 20:39:00,
2013-01-19 13:58:00,17.0,10.0,30.22,NNE,18,8.0,12.0,74,0.00,,,0.00,,2013-01-19 20:58:00,
2013-01-19 14:03:00,17.0,10.0,30.22,North,11,8.0,15.0,75,0.00,,,0.00,,2013-01-19 21:03:00,
2013-01-19 14:06:00,17.0,10.0,30.22,North,5,8.0,13.0,75,0.00,,,0.00,,2013-01-19 21:06:00,
2013-01-19 14:14:00,17.0,10.0,30.22,North,5,8.0,13.0,75,0.00,,,0.00,,2013-01-19 21:14:00,
2013-01-19 14:25:00,17.0,10.0,30.22,North,11,8.0,15.0,75,0.00,,,0.00,,2013-01-19 21:25:00,
2013-01-19 14:41:00,17.0,10.0,30.22,North,11,8.0,15.0,75,0.00,,,0.00,,2013-01-19 21:41:00,
2013-01-19 14:50:00,17.0,10.0,30.22,North,11,8.0,15.0,75,0.00,,,0.00,,2013-01-19 21:50:00,
2013-01-19 15:00:00,17.0,10.0,30.22,North,11,8.0,15.0,75,0.00,,,0.00,,2013-01-19 22:00:00,
2013-01-19 17:09:00,15.0,9.0,30.22,NE,49,5.0,7.0,75,0.00,,,0.00,,2013-01-20 00:09:00,
2013-01-19 17:15:00,15.0,9.0,30.22,NE,49,5.0,7.0,75,0.00,,,0.00,,2013-01-20 00:15:00,
2013-01-19 17:25:00,15.0,9.0,30.22,NE,54,5.0,9.0,76,0.00,,,0.00,,2013-01-20 00:25:00,
2013-01-19 17:33:00,14.0,8.0,30.21,NE,54,3.0,5.0,76,0.00,,,0.00,,2013-01-20 00:33:00,
2013-01-19 17:35:00,14.0,8.0,30.21,NE,53,4.0,7.0,76,0.00,,,0.00,,2013-01-20 00:35:00,
2013-01-19 17:45:00,14.0,8.0,30.21,NE,53,4.0,7.0,76,0.00,,,0.00,,2013-01-20 00:45:00,
2013-01-19 17:56:00,14.0,8.0,30.21,NE,54,3.0,5.0,76,0.00,,,0.00,,2013-01-20 00:56:00,
2013-01-19 18:03:00,14.0,8.0,30.21,NE,54,3.0,5.0,76,0.00,,,0.00,,2013-01-20 01:03:00,
2013-01-19 18:19:00,14.0,8.0,30.21,NE,54,3.0,5.0,76,0.00,,,0.00,,2013-01-20 01:19:00,
2013-01-19 18:25:00,14.0,8.0,30.21,NE,54,3.0,5.0,76,0.00,,,0.00,,2013-01-20 01:25:00,
2013-01-19 20:39:00,14.0,8.0,30.19,East,93,1.0,7.0,78,0.00,,,0.00,,2013-01-20 03:39:00,
2013-01-19 20:47:00,14.0,8.0,30.19,East,93,1.0,7.0,78,0.00,,,0.00,,2013-01-20 03:47:00,
2013-01-19 20:58:00,14.0,8.0,30.19,East,93,1.0,5.0,77,0.00,,,0.00,,2013-01-20 03:58:00,
2013-01-19 21:03:00,14.0,8.0,30.18,East,93,1.0,5.0,76,0.00,,,0.00,,2013-01-20 04:03:00,
2013-01-19 21:05:00,14.0,8.0,30.18,East,93,2.0,5.0,77,0.00,,,0.00,,2013-01-20 04:05:00,
2013-01-19 21:15:00,14.0,8.0,30.18,East,93,2.0,5.0,77,0.00,,,0.00,,2013-01-20 04:15:00,
2013-01-19 21:25:00,14.0,8.0,30.18,East,93,1.0,5.0,76,0.00,,,0.00,,2013-01-20 04:25:00,
2013-01-19 21:35:00,14.0,8.0,30.18,East,93,1.0,5.0,76,0.00,,,0.00,,2013-01-20 04:35:00,
2013-01-19 21:44:00,14.0,8.0,30.18,East,93,1.0,5.0,76,0.00,,,0.00,,2013-01-20 04:44:00,
2013-01-19 21:57:00,14.0,8.0,30.18,East,93,1.0,5.0,76,0.00,,,0.00,,2013-01-20 04:57:00,